Time;durP1;ratioP1;P1;durP2;ratioP2;P2;SDS_P1;SDS_P2;PMS_P1;PMS_P2;Temp;Humidity;BMP_temperature;BMP_pressure;BME280_temperature;BME280_humidity;BME280_pressure;Samples;Min_cycle;Max_cycle;Signal;HPM_P1;HPM_P2
2023/10/22 00:00:09;;;;;;;4.85;0.85;;;;;;;20.77;55.48;100942.75;5068609;28;20023;-57
2023/10/22 00:02:36;;;;;;;2.95;1.10;;;;;;;20.78;56.26;100940.84;5069020;28;20024;-58
2023/10/22 00:05:04;;;;;;;2.90;1.20;;;;;;;20.70;55.92;100941.38;5071757;28;20036;-58
2023/10/22 00:07:31;;;;;;;3.78;1.10;;;;;;;20.59;56.59;100940.56;5070305;28;20051;-58
2023/10/22 00:09:57;;;;;;;4.47;1.70;;;;;;;20.44;56.76;100943.22;5071115;28;20052;-58
2023/10/22 00:12:23;;;;;;;3.40;1.70;;;;;;;20.49;56.41;100949.53;5071225;28;20035;-58
2023/10/22 00:14:50;;;;;;;1.70;1.13;;;;;;;20.41;55.88;100946.47;5071188;28;20493;-57
2023/10/22 00:17:16;;;;;;;1.85;0.70;;;;;;;20.27;56.43;100935.31;5071288;28;20036;-57
2023/10/22 00:19:42;;;;;;;2.95;1.02;;;;;;;20.06;57.42;100945.31;5068700;28;20040;-57
2023/10/22 00:22:11;;;;;;;2.38;1.10;;;;;;;20.13;57.34;100939.63;5070208;28;20439;-57
2023/10/22 00:24:37;;;;;;;2.53;1.08;;;;;;;20.07;56.77;100944.22;5071218;28;20031;-57
2023/10/22 00:27:04;;;;;;;3.33;0.90;;;;;;;19.89;57.15;100950.94;5070902;28;20516;-57
2023/10/22 00:29:31;;;;;;;2.33;1.30;;;;;;;19.88;57.28;100937.63;5068466;28;20033;-57
2023/10/22 00:31:57;;;;;;;2.58;1.05;;;;;;;19.84;57.60;100947.38;5051181;28;20025;-57
2023/10/22 00:34:23;;;;;;;1.70;0.80;;;;;;;19.72;57.62;100939.47;5053246;28;20037;-58
2023/10/22 00:36:50;;;;;;;1.63;1.02;;;;;;;19.58;57.74;100949.94;5062417;28;20043;-58
2023/10/22 00:39:16;;;;;;;2.55;1.20;;;;;;;19.44;58.29;100938.75;5067725;28;20025;-58
2023/10/22 00:41:42;;;;;;;1.00;0.90;;;;;;;19.40;58.76;100937.63;5074068;28;20029;-58
2023/10/22 00:44:08;;;;;;;2.10;1.10;;;;;;;19.43;58.29;100930.84;5074897;28;20552;-57
2023/10/22 00:46:36;;;;;;;2.92;1.35;;;;;;;19.15;58.79;100930.13;5074703;28;20475;-55
2023/10/22 00:49:03;;;;;;;2.22;1.20;;;;;;;19.15;58.90;100935.53;5070384;28;20435;-58
2023/10/22 00:51:29;;;;;;;1.40;1.00;;;;;;;19.13;59.15;100932.28;5073446;28;20033;-58
2023/10/22 00:53:56;;;;;;;2.28;1.20;;;;;;;19.10;59.48;100931.97;5075355;28;20059;-58
2023/10/22 00:56:23;;;;;;;2.15;1.13;;;;;;;18.95;59.87;100930.00;5075176;28;20482;-60
2023/10/22 00:58:50;;;;;;;3.20;1.25;;;;;;;18.94;60.08;100939.22;5063533;28;20035;-57
2023/10/22 01:01:18;;;;;;;2.67;0.77;;;;;;;19.03;60.37;100937.63;5052558;28;20451;-58
2023/10/22 01:03:44;;;;;;;1.85;1.05;;;;;;;18.99;60.29;100922.97;5060098;28;20033;-58
2023/10/22 01:06:11;;;;;;;1.70;0.93;;;;;;;19.01;60.28;100934.38;5062355;28;20451;-58
2023/10/22 01:08:39;;;;;;;0.93;0.80;;;;;;;18.95;60.30;100930.81;5071969;28;20041;-57
2023/10/22 01:11:10;;;;;;;3.05;1.35;;;;;;;18.92;60.59;100934.03;5074723;28;20037;-58
2023/10/22 01:13:40;;;;;;;2.38;1.20;;;;;;;18.90;60.52;100938.06;5074681;28;20025;-58
2023/10/22 01:16:08;;;;;;;4.78;1.38;;;;;;;18.85;61.01;100929.91;5074366;28;20035;-58
2023/10/22 01:18:34;;;;;;;1.65;1.23;;;;;;;18.89;60.36;100933.72;5063460;28;20094;-58
2023/10/22 01:21:01;;;;;;;6.05;1.70;;;;;;;18.71;60.91;100937.63;5062256;28;20025;-58
2023/10/22 01:23:27;;;;;;;3.35;1.20;;;;;;;18.67;61.28;100941.91;5072735;28;20387;-58
2023/10/22 01:25:53;;;;;;;3.85;1.23;;;;;;;18.63;61.55;100932.66;5070216;28;20148;-57
2023/10/22 01:28:20;;;;;;;1.77;1.00;;;;;;;18.74;60.87;100937.13;5074513;28;20024;-57
2023/10/22 01:30:46;;;;;;;1.42;0.93;;;;;;;18.71;60.61;100941.19;5065769;28;20032;-58
2023/10/22 01:33:12;;;;;;;2.08;1.20;;;;;;;18.66;60.72;100935.69;5072075;28;20090;-58
2023/10/22 01:35:39;;;;;;;2.13;1.20;;;;;;;18.60;61.51;100933.16;5074004;28;20029;-58
2023/10/22 01:38:05;;;;;;;1.13;0.98;;;;;;;18.69;61.42;100935.19;5054121;28;20021;-58
2023/10/22 01:40:31;;;;;;;2.67;1.20;;;;;;;18.35;62.75;100939.16;5061188;28;20059;-58
2023/10/22 01:42:57;;;;;;;1.83;1.00;;;;;;;18.38;62.82;100933.25;5070876;28;20043;-58
2023/10/22 01:45:25;;;;;;;2.80;1.15;;;;;;;18.34;63.09;100937.53;5070380;28;20129;-58
2023/10/22 01:47:52;;;;;;;1.10;0.90;;;;;;;18.35;62.86;100933.75;5073484;28;20079;-57
2023/10/22 01:50:18;;;;;;;3.03;0.95;;;;;;;18.27;63.52;100934.22;5073069;28;20100;-58
2023/10/22 01:52:44;;;;;;;1.15;0.82;;;;;;;18.10;64.66;100937.81;5073806;28;20107;-58
2023/10/22 01:55:10;;;;;;;4.03;1.38;;;;;;;18.14;64.53;100938.13;5072754;28;20080;-58
2023/10/22 01:57:37;;;;;;;8.48;1.88;;;;;;;17.95;65.62;100943.06;5059182;28;20083;-58
2023/10/22 02:00:04;;;;;;;2.92;1.50;;;;;;;18.06;65.15;100931.25;5071069;28;20025;-59
2023/10/22 02:02:30;;;;;;;2.15;1.20;;;;;;;18.07;65.59;100938.31;5073147;28;20041;-58
2023/10/22 02:04:56;;;;;;;0.88;0.88;;;;;;;17.94;66.15;100944.13;5060082;28;20395;-58
2023/10/22 02:07:22;;;;;;;2.17;1.23;;;;;;;17.96;66.13;100944.69;5071018;28;20029;-58
2023/10/22 02:09:48;;;;;;;3.17;1.27;;;;;;;18.03;66.52;100941.78;5073257;28;20183;-58
2023/10/22 02:12:15;;;;;;;1.67;1.10;;;;;;;18.04;66.57;100940.69;5073159;28;20052;-58
2023/10/22 02:14:41;;;;;;;3.42;1.50;;;;;;;17.96;67.65;100947.38;5073136;28;20024;-58
2023/10/22 02:17:07;;;;;;;4.50;1.73;;;;;;;17.83;68.04;100945.88;5072905;28;20032;-58
2023/10/22 02:19:34;;;;;;;1.83;1.40;;;;;;;17.66;68.45;100942.38;5072431;28;20119;-58
2023/10/22 02:22:00;;;;;;;1.45;1.00;;;;;;;17.76;68.48;100944.41;5069354;28;20028;-58
2023/10/22 02:24:28;;;;;;;2.65;1.20;;;;;;;17.64;68.80;100942.63;5073216;28;20066;-57
2023/10/22 02:26:54;;;;;;;2.65;1.30;;;;;;;17.66;68.81;100945.91;5073047;28;20421;-59
2023/10/22 02:29:21;;;;;;;2.42;1.25;;;;;;;17.55;69.28;100949.53;5070878;28;20545;-58
2023/10/22 02:31:47;;;;;;;2.60;1.33;;;;;;;17.61;69.42;100947.72;5065624;28;20024;-58
2023/10/22 02:34:13;;;;;;;2.05;1.23;;;;;;;17.53;69.36;100946.25;5073423;28;20021;-58
2023/10/22 02:36:40;;;;;;;3.30;1.55;;;;;;;17.56;69.62;100939.53;5072808;28;20031;-59
2023/10/22 02:39:08;;;;;;;1.60;1.30;;;;;;;17.51;70.01;100942.97;5071207;28;20031;-58
2023/10/22 02:41:34;;;;;;;1.80;1.10;;;;;;;17.66;69.17;100943.19;5052786;28;20036;-58
2023/10/22 02:44:00;;;;;;;1.95;1.50;;;;;;;17.65;70.03;100943.44;5053004;28;20100;-57
2023/10/22 02:46:27;;;;;;;2.83;1.60;;;;;;;17.56;70.03;100945.75;5063809;28;20031;-58
2023/10/22 02:48:53;;;;;;;3.83;1.48;;;;;;;17.40;71.04;100942.03;5072305;28;20413;-57
2023/10/22 02:51:20;;;;;;;1.80;1.42;;;;;;;17.26;71.75;100929.06;5072313;28;20484;-57
2023/10/22 02:53:46;;;;;;;2.40;1.27;;;;;;;17.32;71.62;100928.94;5072371;28;20052;-57
2023/10/22 02:56:12;;;;;;;3.13;1.40;;;;;;;17.23;72.77;100935.81;5076341;28;20065;-57
2023/10/22 02:58:40;;;;;;;2.63;1.27;;;;;;;17.47;72.42;100931.00;5086169;28;20085;-58
2023/10/22 03:01:08;;;;;;;3.00;1.40;;;;;;;17.29;73.79;100931.31;5065736;28;20031;-58
2023/10/22 03:03:41;;;;;;;5.85;1.73;;;;;;;17.26;74.24;100938.00;5072109;28;20109;-58
2023/10/22 03:06:09;;;;;;;3.35;1.60;;;;;;;17.12;74.92;100932.13;5065965;28;20432;-57
2023/10/22 03:08:36;;;;;;;2.03;1.38;;;;;;;17.06;75.37;100929.59;5091449;28;20527;-57
2023/10/22 03:11:04;;;;;;;2.80;1.40;;;;;;;17.24;75.36;100923.09;5092331;28;20170;-57
2023/10/22 03:13:31;;;;;;;2.08;1.10;;;;;;;17.13;76.27;100928.38;5092275;28;20024;-57
2023/10/22 03:16:08;;;;;;;3.75;1.70;;;;;;;17.15;75.69;100925.41;5092395;28;20047;-57
2023/10/22 03:18:34;;;;;;;3.13;1.63;;;;;;;17.18;76.07;100926.81;5070817;28;20025;-57
2023/10/22 03:21:00;;;;;;;3.30;1.45;;;;;;;17.08;76.20;100924.75;5068124;28;20120;-57
2023/10/22 03:23:26;;;;;;;3.80;1.60;;;;;;;17.21;76.31;100927.13;5071619;28;20032;-57
2023/10/22 03:25:53;;;;;;;2.90;1.30;;;;;;;17.05;76.28;100923.38;5071359;28;20071;-57
2023/10/22 03:28:19;;;;;;;4.45;1.92;;;;;;;16.89;77.04;100924.19;5070604;28;20025;-58
2023/10/22 03:30:45;;;;;;;3.78;2.00;;;;;;;16.89;77.34;100930.44;5071799;28;20021;-57
2023/10/22 03:33:11;;;;;;;2.33;1.42;;;;;;;16.97;77.20;100925.66;5068655;28;20505;-58
2023/10/22 03:35:37;;;;;;;2.70;1.60;;;;;;;16.80;77.48;100926.47;5071597;28;20482;-57
2023/10/22 03:38:04;;;;;;;4.53;2.30;;;;;;;16.89;77.36;100926.91;5069871;28;20103;-57
2023/10/22 03:40:33;;;;;;;3.85;1.55;;;;;;;16.78;78.21;100927.81;5071630;28;20484;-57
2023/10/22 03:42:59;;;;;;;2.50;1.40;;;;;;;16.83;78.21;100927.88;5069589;28;20025;-58
2023/10/22 03:45:25;;;;;;;3.17;1.80;;;;;;;16.76;79.00;100928.03;5070023;28;20031;-58
2023/10/22 03:47:52;;;;;;;3.40;1.80;;;;;;;16.79;79.92;100926.72;5071266;28;20030;-57
2023/10/22 03:50:18;;;;;;;10.05;1.33;;;;;;;16.82;79.73;100929.78;5071547;28;20024;-57
2023/10/22 03:52:44;;;;;;;1.77;1.38;;;;;;;16.71;80.34;100925.25;5071814;28;20025;-58
2023/10/22 03:55:11;;;;;;;1.80;1.65;;;;;;;16.77;80.74;100923.47;5059597;28;20100;-58
2023/10/22 03:57:37;;;;;;;3.75;1.88;;;;;;;16.74;81.40;100915.84;5057167;28;20096;-57
2023/10/22 04:00:07;;;;;;;5.68;2.22;;;;;;;16.78;81.80;100925.09;5074875;28;20028;-57
2023/10/22 04:02:33;;;;;;;3.00;1.63;;;;;;;16.71;82.31;100922.56;5073231;28;20036;-57
2023/10/22 04:04:59;;;;;;;4.20;1.75;;;;;;;16.61;82.77;100925.06;5071664;28;20020;-58
2023/10/22 04:07:26;;;;;;;5.03;2.22;;;;;;;16.66;82.70;100927.84;5070563;28;20024;-57
2023/10/22 04:09:52;;;;;;;2.80;1.77;;;;;;;16.60;83.50;100929.66;5069475;28;20025;-57
2023/10/22 04:12:18;;;;;;;2.75;1.70;;;;;;;16.61;82.91;100928.56;5071234;28;20024;-57
2023/10/22 04:14:44;;;;;;;5.20;2.10;;;;;;;16.59;84.19;100932.56;5071550;28;20398;-57
2023/10/22 04:17:11;;;;;;;4.00;1.95;;;;;;;16.58;84.30;100928.22;5071094;28;20025;-57
2023/10/22 04:19:37;;;;;;;4.32;1.58;;;;;;;16.60;84.02;100935.03;5068924;28;20127;-56
2023/10/22 04:22:03;;;;;;;5.45;2.25;;;;;;;16.61;84.55;100943.97;5071240;28;20032;-57
2023/10/22 04:24:30;;;;;;;2.75;1.90;;;;;;;16.55;84.24;100940.34;5071340;28;20043;-57
2023/10/22 04:26:57;;;;;;;3.05;1.77;;;;;;;16.43;84.46;100942.28;5071233;28;20056;-57
2023/10/22 04:29:23;;;;;;;2.58;1.58;;;;;;;16.50;84.89;100951.06;5067328;28;20095;-57
2023/10/22 04:31:50;;;;;;;2.65;1.83;;;;;;;16.45;84.47;100945.56;5051043;28;20025;-57
2023/10/22 04:34:18;;;;;;;3.53;1.77;;;;;;;16.35;84.83;100948.09;5051140;28;20092;-57
2023/10/22 04:36:44;;;;;;;2.20;1.45;;;;;;;16.36;84.51;100949.72;5051080;28;20033;-57
2023/10/22 04:39:10;;;;;;;3.20;2.10;;;;;;;16.33;83.63;100961.84;5057180;28;20020;-57
2023/10/22 04:41:37;;;;;;;2.83;1.60;;;;;;;16.23;84.04;100958.94;5069811;28;20024;-57
2023/10/22 04:44:04;;;;;;;2.55;1.80;;;;;;;16.26;83.42;100960.31;5071026;28;20056;-57
2023/10/22 04:46:31;;;;;;;2.15;1.50;;;;;;;16.36;82.68;100955.13;5067289;28;20036;-57
2023/10/22 04:48:57;;;;;;;3.00;1.48;;;;;;;16.23;82.89;100967.03;5069994;28;20534;-57
2023/10/22 04:51:24;;;;;;;1.80;1.20;;;;;;;16.20;82.52;100966.69;5069230;28;20024;-57
2023/10/22 04:53:50;;;;;;;3.90;1.92;;;;;;;16.19;82.29;100963.16;5070862;28;20494;-58
2023/10/22 04:56:16;;;;;;;2.53;1.42;;;;;;;16.23;82.98;100963.53;5066182;28;20056;-57
2023/10/22 04:58:42;;;;;;;3.42;1.90;;;;;;;16.18;83.30;100958.00;5050748;28;20498;-58
2023/10/22 05:01:10;;;;;;;4.07;1.60;;;;;;;16.22;83.59;100962.69;5067556;28;20029;-58
2023/10/22 05:03:37;;;;;;;4.38;1.67;;;;;;;16.15;83.90;100961.19;5070816;28;20111;-58
2023/10/22 05:06:06;;;;;;;5.60;2.22;;;;;;;16.05;84.69;100959.13;5070987;28;20025;-58
2023/10/22 05:08:36;;;;;;;3.38;2.03;;;;;;;16.13;84.55;100960.63;5069026;28;20056;-57
2023/10/22 05:11:05;;;;;;;3.58;2.28;;;;;;;16.16;85.74;100962.81;5070913;28;20033;-57
2023/10/22 05:13:37;;;;;;;2.65;2.15;;;;;;;16.15;86.15;100962.00;5071028;28;20386;-57
2023/10/22 05:16:07;;;;;;;2.55;2.08;;;;;;;16.15;86.43;100967.41;5071079;28;20028;-58
2023/10/22 05:18:33;;;;;;;5.70;2.53;;;;;;;16.14;86.25;100964.94;5070082;28;20068;-58
2023/10/22 05:21:04;;;;;;;2.63;2.10;;;;;;;16.16;86.67;100966.38;5072252;28;20025;-58
2023/10/22 05:23:31;;;;;;;5.05;2.97;;;;;;;16.30;85.72;100964.19;5074165;28;20021;-57
2023/10/22 05:26:09;;;;;;;7.18;3.15;;;;;;;16.25;85.47;100964.09;5073970;28;20028;-58
2023/10/22 05:28:36;;;;;;;3.72;2.22;;;;;;;16.16;86.16;100969.06;5072947;28;20425;-57
2023/10/22 05:31:11;;;;;;;4.72;2.38;;;;;;;16.09;86.59;100969.19;5060355;28;20025;-58
2023/10/22 05:33:38;;;;;;;7.10;2.40;;;;;;;16.19;85.78;100968.56;5060535;28;20137;-58
2023/10/22 05:36:04;;;;;;;4.38;2.88;;;;;;;16.15;85.89;100966.59;5071551;28;20030;-57
2023/10/22 05:38:30;;;;;;;4.20;2.38;;;;;;;16.13;85.58;100969.53;5053425;28;20132;-56
2023/10/22 05:40:57;;;;;;;4.97;2.58;;;;;;;16.27;84.48;100967.38;5053974;28;20033;-57
2023/10/22 05:43:24;;;;;;;5.68;2.25;;;;;;;16.24;84.46;100974.06;5053886;28;20021;-58
2023/10/22 05:45:56;;;;;;;5.03;2.33;;;;;;;16.12;84.89;100958.97;5053341;28;20025;-58
2023/10/22 05:48:23;;;;;;;6.93;3.00;;;;;;;16.10;85.58;100965.44;5058043;28;20035;-58
2023/10/22 05:50:50;;;;;;;5.55;2.90;;;;;;;16.22;85.77;100965.41;5072897;28;20067;-57
2023/10/22 05:53:17;;;;;;;5.53;2.30;;;;;;;16.17;85.47;100961.78;5073779;28;20387;-57
2023/10/22 05:55:43;;;;;;;9.88;3.17;;;;;;;16.14;85.11;100957.66;5073471;28;20560;-57
2023/10/22 05:58:09;;;;;;;5.45;2.72;;;;;;;16.07;85.47;100965.09;5071941;28;20041;-58
2023/10/22 06:00:35;;;;;;;5.43;2.65;;;;;;;16.04;85.08;100960.97;5073634;28;20037;-58
2023/10/22 06:03:03;;;;;;;4.45;2.03;;;;;;;16.24;83.55;100959.75;5073377;28;20032;-57
2023/10/22 06:05:29;;;;;;;2.65;1.60;;;;;;;16.16;83.01;100960.13;5067827;28;20039;-58
2023/10/22 06:07:56;;;;;;;8.98;2.22;;;;;;;16.19;82.47;100962.34;5071913;28;20036;-57
2023/10/22 06:10:22;;;;;;;2.92;1.50;;;;;;;16.12;82.81;100965.19;5073201;28;20493;-57
2023/10/22 06:12:51;;;;;;;3.45;1.98;;;;;;;16.14;82.73;100965.75;5073296;28;20033;-58
2023/10/22 06:15:17;;;;;;;2.58;1.60;;;;;;;15.92;82.85;100965.59;5073418;28;20017;-58
2023/10/22 06:17:44;;;;;;;4.00;1.42;;;;;;;16.06;82.49;100964.28;5071492;28;20035;-57
2023/10/22 06:20:11;;;;;;;3.03;1.73;;;;;;;16.08;82.59;100961.31;5073606;28;20070;-57
2023/10/22 06:22:37;;;;;;;3.03;1.77;;;;;;;16.04;82.32;100962.84;5073448;28;20099;-57
2023/10/22 06:25:04;;;;;;;4.68;1.67;;;;;;;16.05;82.24;100956.41;5069695;28;20029;-57
2023/10/22 06:27:30;;;;;;;7.82;2.15;;;;;;;16.03;82.50;100955.81;5072655;28;20082;-57
2023/10/22 06:29:56;;;;;;;7.53;2.40;;;;;;;15.97;82.33;100970.28;5068315;28;20060;-57
2023/10/22 06:32:22;;;;;;;3.90;1.60;;;;;;;16.05;81.82;100956.41;5052754;28;20021;-57
2023/10/22 06:34:49;;;;;;;4.18;1.88;;;;;;;16.08;82.03;100958.63;5055077;28;20040;-58
2023/10/22 06:37:15;;;;;;;3.75;1.85;;;;;;;16.02;82.73;100960.41;5070861;28;20020;-58
2023/10/22 06:39:41;;;;;;;3.45;1.80;;;;;;;16.12;82.15;100956.28;5072281;28;20032;-57
2023/10/22 06:42:07;;;;;;;4.38;1.92;;;;;;;16.16;82.35;100965.50;5073066;28;20037;-57
2023/10/22 06:44:34;;;;;;;3.38;1.70;;;;;;;16.07;82.71;100960.50;5077989;22;20103;-57
2023/10/22 06:47:00;;;;;;;3.97;2.10;;;;;;;16.30;81.57;100964.19;5071959;28;20037;-57
2023/10/22 06:49:26;;;;;;;5.18;2.22;;;;;;;16.42;80.77;100959.56;5071395;28;20032;-57
2023/10/22 06:51:53;;;;;;;4.78;2.15;;;;;;;16.41;80.01;100957.09;5072654;28;20050;-58
2023/10/22 06:54:19;;;;;;;3.80;2.10;;;;;;;16.38;79.52;100955.72;5072624;28;20081;-57
2023/10/22 06:56:46;;;;;;;3.65;1.83;;;;;;;16.58;78.57;100961.47;5067081;28;20029;-57
2023/10/22 06:59:12;;;;;;;4.82;1.80;;;;;;;16.54;78.37;100952.19;5072076;28;20032;-57
2023/10/22 07:01:38;;;;;;;8.52;2.10;;;;;;;16.38;78.87;100958.41;5072122;28;20021;-57
2023/10/22 07:04:05;;;;;;;2.70;1.50;;;;;;;16.53;78.26;100957.84;5072400;28;20025;-57
2023/10/22 07:06:31;;;;;;;4.45;1.60;;;;;;;16.60;77.82;100953.97;5069412;28;20371;-58
2023/10/22 07:08:57;;;;;;;3.13;1.52;;;;;;;16.43;78.24;100958.47;5069459;28;20071;-57
2023/10/22 07:11:23;;;;;;;5.38;1.77;;;;;;;16.54;77.79;100957.59;5071550;28;20108;-57
2023/10/22 07:13:49;;;;;;;4.03;1.42;;;;;;;16.48;78.28;100957.75;5071361;28;20032;-57
2023/10/22 07:16:16;;;;;;;2.65;1.25;;;;;;;16.64;77.78;100957.78;5071502;28;20024;-57
2023/10/22 07:18:43;;;;;;;1.98;1.55;;;;;;;16.70;77.01;100960.59;5067393;28;20028;-57
2023/10/22 07:21:09;;;;;;;2.47;1.23;;;;;;;16.60;77.61;100959.38;5070703;28;20501;-58
2023/10/22 07:23:35;;;;;;;4.10;1.40;;;;;;;16.69;77.09;100964.38;5071838;28;20043;-58
2023/10/22 07:26:02;;;;;;;2.35;1.30;;;;;;;16.75;76.78;100961.53;5071973;28;20090;-57
2023/10/22 07:28:28;;;;;;;1.67;0.88;;;;;;;16.75;76.61;100955.31;5071649;28;20052;-57
2023/10/22 07:30:56;;;;;;;2.35;1.20;;;;;;;16.78;76.55;100954.84;5059214;28;20071;-58
2023/10/22 07:33:24;;;;;;;2.60;1.10;;;;;;;16.86;75.56;100952.53;5051884;28;20029;-58
2023/10/22 07:35:55;;;;;;;2.22;1.10;;;;;;;16.95;75.35;100952.16;5066229;28;20086;-58
2023/10/22 07:38:22;;;;;;;6.22;1.30;;;;;;;16.82;75.81;100947.84;5070136;28;20029;-57
2023/10/22 07:40:50;;;;;;;1.23;0.80;;;;;;;16.98;75.48;100946.22;5071744;28;20608;-58
2023/10/22 07:43:16;;;;;;;3.15;0.88;;;;;;;16.87;75.39;100948.75;5071096;28;20028;-58
2023/10/22 07:45:43;;;;;;;2.83;1.10;;;;;;;16.95;75.48;100952.97;5071468;28;20044;-58
2023/10/22 07:48:09;;;;;;;1.27;0.90;;;;;;;16.96;75.11;100951.88;5071557;28;20036;-58
2023/10/22 07:50:35;;;;;;;2.28;1.08;;;;;;;16.94;74.99;100951.31;5071326;28;20020;-57
2023/10/22 07:53:01;;;;;;;2.53;1.05;;;;;;;17.08;75.12;100952.63;5067855;28;20089;-57
2023/10/22 07:55:28;;;;;;;2.47;1.17;;;;;;;16.97;75.27;100955.41;5071016;28;20036;-58
2023/10/22 07:57:54;;;;;;;1.70;1.20;;;;;;;16.97;76.00;100960.81;5071272;28;20430;-57
2023/10/22 08:00:20;;;;;;;4.00;1.40;;;;;;;16.95;76.95;100961.06;5071344;28;20025;-58
2023/10/22 08:02:46;;;;;;;4.53;1.17;;;;;;;17.02;77.36;100966.31;5071573;28;20479;-58
2023/10/22 08:05:13;;;;;;;2.88;0.90;;;;;;;17.21;77.08;100958.75;5070603;28;20032;-57
2023/10/22 08:07:39;;;;;;;2.65;1.23;;;;;;;17.02;77.91;100971.72;5071061;28;20032;-57
2023/10/22 08:10:06;;;;;;;3.05;1.00;;;;;;;17.09;77.74;100965.06;5071562;28;20036;-58
2023/10/22 08:12:32;;;;;;;4.72;1.27;;;;;;;17.11;77.72;100960.25;5070780;28;20029;-57
2023/10/22 08:14:58;;;;;;;2.42;1.20;;;;;;;17.05;78.10;100965.84;5068963;28;20029;-57
2023/10/22 08:17:24;;;;;;;2.45;1.05;;;;;;;16.99;78.56;100967.63;5071277;28;20032;-58
2023/10/22 08:19:50;;;;;;;2.58;0.95;;;;;;;17.11;78.12;100971.06;5071006;28;20035;-58
2023/10/22 08:22:17;;;;;;;2.55;1.08;;;;;;;17.12;78.27;100961.88;5071361;28;20028;-57
2023/10/22 08:24:48;;;;;;;1.98;0.85;;;;;;;17.11;79.37;100960.25;5069947;28;20075;-57
2023/10/22 08:27:15;;;;;;;2.35;0.82;;;;;;;17.11;79.91;100964.84;5069873;28;20111;-58
2023/10/22 08:29:41;;;;;;;1.08;0.63;;;;;;;16.99;80.39;100956.81;5068376;28;20494;-57
2023/10/22 08:32:07;;;;;;;2.90;0.70;;;;;;;16.86;81.91;100965.22;5051238;28;20055;-57
2023/10/22 08:34:34;;;;;;;2.63;0.75;;;;;;;16.92;81.54;100961.53;5055639;28;20037;-58
2023/10/22 08:37:00;;;;;;;1.73;0.70;;;;;;;16.86;82.19;100962.53;5070881;28;20068;-57
2023/10/22 08:39:27;;;;;;;3.92;1.00;;;;;;;16.79;82.13;100954.59;5071190;28;20036;-58
2023/10/22 08:42:07;;;;;;;2.17;0.73;;;;;;;16.85;82.54;100955.50;5070002;28;20067;-58
2023/10/22 08:44:39;;;;;;;1.65;0.98;;;;;;;16.89;82.06;100951.25;5066620;28;20024;-55
2023/10/22 08:47:08;;;;;;;1.25;0.90;;;;;;;16.88;82.08;100944.19;5070910;28;20478;-58
2023/10/22 08:49:38;;;;;;;2.78;0.85;;;;;;;16.94;81.91;100937.81;5070957;28;20074;-57
2023/10/22 08:52:05;;;;;;;3.67;1.00;;;;;;;16.88;82.67;100934.19;5071005;28;20024;-58
2023/10/22 08:54:31;;;;;;;1.58;0.80;;;;;;;16.91;83.26;100937.47;5069543;28;20036;-58
2023/10/22 08:56:59;;;;;;;2.72;1.10;;;;;;;16.90;83.42;100942.06;5073444;28;20028;-57
2023/10/22 08:59:26;;;;;;;1.95;0.80;;;;;;;16.94;83.68;100935.09;5074467;28;20021;-57
2023/10/22 09:01:53;;;;;;;5.70;1.17;;;;;;;16.72;85.06;100929.59;5074537;28;20033;-57
2023/10/22 09:04:20;;;;;;;1.75;0.90;;;;;;;16.85;84.88;100933.84;5074804;28;20036;-58
2023/10/22 09:06:46;;;;;;;2.58;0.70;;;;;;;16.85;84.35;100923.03;5072806;28;20031;-57
2023/10/22 09:09:51;;;;;;;1.88;0.75;;;;;;;16.69;85.83;100930.03;5074590;28;20032;-57
2023/10/22 09:12:22;;;;;;;1.63;1.08;;;;;;;16.87;84.88;100926.31;5031551;28;20109;-58
2023/10/22 09:14:48;;;;;;;5.38;1.00;;;;;;;16.90;84.18;100923.13;5032537;28;20064;-58
2023/10/22 09:17:18;;;;;;;2.00;1.00;;;;;;;16.97;84.07;100923.78;5057861;28;20114;-57
2023/10/22 09:19:47;;;;;;;3.50;1.10;;;;;;;16.87;84.87;100923.59;5072868;28;20478;-58
2023/10/22 09:22:25;;;;;;;3.28;1.10;;;;;;;16.87;84.89;100920.91;5073038;28;20033;-58
2023/10/22 09:24:54;;;;;;;2.42;1.05;;;;;;;16.87;85.70;100920.91;5074517;28;20051;-57
2023/10/22 09:27:27;;;;;;;3.53;1.20;;;;;;;16.97;85.62;100917.56;5072960;28;20481;-58
2023/10/22 09:30:00;;;;;;;1.95;0.90;;;;;;;16.75;86.92;100914.75;5069916;28;20016;-58
2023/10/22 09:32:26;;;;;;;7.03;1.27;;;;;;;16.78;86.86;100922.41;5056044;28;20559;-57
2023/10/22 09:34:53;;;;;;;1.58;0.90;;;;;;;16.66;87.56;100916.19;5073136;28;20043;-58
2023/10/22 09:37:19;;;;;;;2.80;1.17;;;;;;;16.74;87.04;100915.84;5072667;28;20039;-57
2023/10/22 09:39:46;;;;;;;3.22;1.17;;;;;;;16.72;87.52;100918.78;5073967;28;20489;-58
2023/10/22 09:42:14;;;;;;;1.70;0.73;;;;;;;16.77;87.38;100913.47;5074003;28;20078;-57
2023/10/22 09:44:43;;;;;;;1.15;0.60;;;;;;;16.82;87.21;100918.13;5072675;28;20052;-57
2023/10/22 09:47:12;;;;;;;1.20;0.82;;;;;;;16.77;87.94;100916.19;5071396;28;20031;-57
2023/10/22 09:49:44;;;;;;;2.53;1.20;;;;;;;16.77;88.76;100909.94;5072431;28;20059;-57
2023/10/22 09:52:13;;;;;;;4.85;1.30;;;;;;;16.67;89.27;100915.16;5073697;28;20055;-57
2023/10/22 09:54:40;;;;;;;2.20;1.00;;;;;;;16.72;89.36;100910.69;5073787;28;20048;-57
2023/10/22 09:57:30;;;;;;;5.68;1.52;;;;;;;16.76;88.84;100911.00;5072100;28;20040;-58
2023/10/22 10:00:04;;;;;;;1.60;0.90;;;;;;;16.61;89.75;100906.94;5070549;28;20133;-57
2023/10/22 10:02:34;;;;;;;1.17;0.90;;;;;;;16.68;89.85;100906.78;5073438;28;20025;-57
2023/10/22 10:05:03;;;;;;;4.47;1.05;;;;;;;16.68;90.32;100901.38;5073658;28;20024;-57
2023/10/22 10:07:31;;;;;;;1.88;0.80;;;;;;;16.78;90.19;100906.19;5070144;28;20085;-57
2023/10/22 10:10:00;;;;;;;1.63;0.82;;;;;;;16.89;88.42;100895.28;5071668;28;20032;-57
2023/10/22 10:12:29;;;;;;;1.20;0.55;;;;;;;16.96;86.54;100897.81;5072349;28;20025;-57
2023/10/22 10:14:55;;;;;;;1.20;0.60;;;;;;;16.87;86.55;100900.09;5072371;28;20047;-57
2023/10/22 10:17:21;;;;;;;1.90;0.90;;;;;;;16.89;86.92;100897.16;5070629;28;20032;-57
2023/10/22 10:19:47;;;;;;;1.85;0.57;;;;;;;16.69;89.25;100892.22;5072965;28;20024;-57
2023/10/22 10:22:42;;;;;;;1.73;0.70;;;;;;;16.60;91.76;100893.66;5073168;28;20466;-57
2023/10/22 10:25:31;;;;;;;1.73;0.80;;;;;;;16.71;92.44;100889.28;5072931;28;20024;-57
2023/10/22 10:28:01;;;;;;;1.05;0.70;;;;;;;16.66;93.57;100889.16;5071133;28;20112;-58
2023/10/22 10:30:28;;;;;;;1.20;0.63;;;;;;;16.58;94.92;100885.81;5064326;28;20427;-57
2023/10/22 10:32:54;;;;;;;3.05;1.00;;;;;;;16.49;96.64;100881.91;5056408;28;20021;-57
2023/10/22 10:35:21;;;;;;;1.67;0.47;;;;;;;16.63;96.38;100879.69;5070464;28;20108;-57
2023/10/22 10:38:12;;;;;;;1.52;0.80;;;;;;;16.61;96.73;100874.53;5072483;28;20024;-57
2023/10/22 10:40:47;;;;;;;2.08;0.70;;;;;;;16.47;97.80;100865.09;5072887;28;20036;-57
2023/10/22 10:43:13;;;;;;;2.03;0.70;;;;;;;16.40;97.94;100867.13;5070678;28;20052;-57
2023/10/22 10:46:00;;;;;;;1.30;0.70;;;;;;;16.32;98.30;100870.22;5072438;28;20052;-57
2023/10/22 10:48:47;;;;;;;0.77;0.77;;;;;;;16.29;98.25;100865.31;5072408;28;20025;-57
2023/10/22 10:51:24;;;;;;;1.83;0.65;;;;;;;16.28;98.52;100866.38;5070345;28;20080;-57
2023/10/22 10:54:12;;;;;;;1.00;0.70;;;;;;;16.23;98.79;100859.00;5071144;28;20397;-57
2023/10/22 10:56:46;;;;;;;1.23;0.82;;;;;;;16.16;100.00;100860.19;5072429;28;20376;-57
2023/10/22 10:59:32;;;;;;;1.52;0.73;;;;;;;15.92;100.00;100863.00;5069714;28;20029;-57
2023/10/22 11:02:06;;;;;;;0.82;0.68;;;;;;;16.09;100.00;100854.97;5071708;28;20044;-57
2023/10/22 11:04:34;;;;;;;1.02;0.50;;;;;;;16.09;100.00;100861.16;5068600;28;20060;-57
2023/10/22 11:07:01;;;;;;;1.58;0.70;;;;;;;16.20;100.00;100862.19;5072215;28;20066;-57
2023/10/22 11:09:27;;;;;;;1.45;1.00;;;;;;;16.04;100.00;100852.97;5072282;28;20115;-57
2023/10/22 11:12:04;;;;;;;1.10;0.85;;;;;;;16.05;100.00;100849.25;5072093;28;20589;-58
2023/10/22 11:14:32;;;;;;;1.98;1.00;;;;;;;15.97;99.16;100849.59;5071296;28;20524;-57
2023/10/22 11:16:59;;;;;;;1.85;0.80;;;;;;;15.95;99.81;100846.34;5071544;28;20032;-58
2023/10/22 11:19:26;;;;;;;4.32;1.52;;;;;;;15.96;99.47;100845.28;5072095;28;20031;-57
2023/10/22 11:21:57;;;;;;;1.95;1.20;;;;;;;16.01;99.43;100848.06;5070992;28;20044;-57
2023/10/22 11:24:28;;;;;;;1.83;1.00;;;;;;;16.03;97.61;100848.63;5069839;28;20107;-57
2023/10/22 11:27:03;;;;;;;2.85;1.30;;;;;;;16.08;96.73;100845.22;5071764;28;20033;-57